Time;durP1;ratioP1;P1;durP2;ratioP2;P2;SDS_P1;SDS_P2;PMS_P1;PMS_P2;Temp;Humidity;BMP_temperature;BMP_pressure;BME280_temperature;BME280_humidity;BME280_pressure;Samples;Min_cycle;Max_cycle;Signal;HPM_P1;HPM_P2
2021/12/25 00:00:47;;;;;;;21.65;13.35;;;6.70;99.90;;;;;;5039657;28;20521;-75
2021/12/25 00:03:15;;;;;;;21.80;13.68;;;6.70;99.90;;;;;;5040430;28;20036;-75
2021/12/25 00:05:40;;;;;;;24.08;13.82;;;6.70;99.90;;;;;;5042699;28;20029;-75
2021/12/25 00:08:06;;;;;;;23.38;13.48;;;6.70;99.90;;;;;;5041176;28;20033;-75
2021/12/25 00:10:32;;;;;;;24.73;14.52;;;6.60;99.90;;;;;;5042846;28;20029;-74
2021/12/25 00:12:58;;;;;;;25.40;14.20;;;6.60;99.90;;;;;;5041440;28;20032;-75
2021/12/25 00:15:24;;;;;;;22.08;13.85;;;6.60;99.90;;;;;;5042337;28;20421;-74
2021/12/25 00:17:49;;;;;;;25.13;14.23;;;6.50;99.90;;;;;;5037524;28;20029;-75
2021/12/25 00:20:15;;;;;;;28.58;15.80;;;6.50;99.90;;;;;;5040383;28;20141;-75
2021/12/25 00:22:41;;;;;;;28.23;15.38;;;6.40;99.90;;;;;;5035931;28;20214;-74
2021/12/25 00:25:07;;;;;;;30.38;16.27;;;6.40;99.90;;;;;;5071310;27;20104;-75
2021/12/25 00:30:22;;;;;;;31.60;17.08;;;6.30;99.90;;;;;;5037716;28;20057;-75
2021/12/25 00:32:59;;;;;;;35.17;17.35;;;6.20;99.90;;;;;;5044526;28;20025;-74
2021/12/25 00:35:25;;;;;;;33.63;17.48;;;6.20;99.90;;;;;;5030123;28;20025;-75
2021/12/25 00:37:51;;;;;;;37.17;17.45;;;6.20;99.90;;;;;;5038733;28;20021;-76
2021/12/25 00:40:18;;;;;;;34.53;19.17;;;6.20;99.90;;;;;;5045073;28;20055;-75
2021/12/25 00:42:44;;;;;;;45.95;19.83;;;6.10;99.90;;;;;;5040852;28;20041;-75
2021/12/25 00:45:10;;;;;;;40.28;20.48;;;6.10;99.90;;;;;;5034027;28;20028;-75
2021/12/25 00:47:36;;;;;;;45.67;20.83;;;6.00;99.90;;;;;;5033256;28;20495;-75
2021/12/25 00:50:03;;;;;;;44.97;21.70;;;6.00;99.90;;;;;;5039263;28;20033;-75
2021/12/25 00:52:28;;;;;;;45.63;22.13;;;5.90;99.90;;;;;;5042913;28;20021;-75
2021/12/25 00:54:54;;;;;;;48.78;23.30;;;5.90;99.90;;;;;;5047121;28;20032;-75
2021/12/25 00:57:19;;;;;;;51.78;22.58;;;5.80;99.90;;;;;;5048450;28;20328;-75
2021/12/25 00:59:45;;;;;;;45.45;22.00;;;5.80;99.90;;;;;;5040707;28;20029;-75
2021/12/25 01:02:10;;;;;;;52.35;23.83;;;5.80;99.90;;;;;;5040188;28;20017;-75
2021/12/25 01:04:36;;;;;;;50.88;23.65;;;5.70;99.90;;;;;;5042636;28;20240;-75
2021/12/25 01:07:02;;;;;;;48.78;23.85;;;5.70;99.90;;;;;;5045736;27;20029;-75
2021/12/25 01:09:27;;;;;;;54.83;25.17;;;5.70;99.90;;;;;;5036781;28;20056;-75
2021/12/25 01:11:54;;;;;;;49.38;23.83;;;5.70;99.90;;;;;;5037332;28;20021;-76
2021/12/25 01:14:30;;;;;;;57.65;24.60;;;5.60;99.90;;;;;;5038527;28;20113;-76
2021/12/25 01:24:41;;;;;;;48.65;23.10;;;5.60;99.90;;;;;;5028172;28;20526;-76
2021/12/25 01:30:15;;;;;;;53.15;23.08;;;5.50;99.90;;;;;;4993010;28;20518;-76
2021/12/25 01:49:10;;;;;;;43.85;21.85;;;5.50;99.90;;;;;;5087096;28;20116;-76
2021/12/25 01:51:35;;;;;;;41.63;22.50;;;5.40;99.90;;;;;;5087085;28;20020;-76
2021/12/25 01:54:01;;;;;;;43.33;21.17;;;5.40;99.90;;;;;;5087434;28;20046;-76
2021/12/25 01:56:27;;;;;;;46.40;22.25;;;5.40;99.90;;;;;;5087447;28;20044;-75
2021/12/25 01:58:52;;;;;;;40.40;21.58;;;5.40;99.90;;;;;;5087456;28;20032;-75
2021/12/25 02:01:18;;;;;;;38.22;20.63;;;5.40;99.90;;;;;;5090584;28;20576;-75
2021/12/25 02:03:44;;;;;;;36.67;20.23;;;5.40;99.90;;;;;;5087519;28;20483;-75
2021/12/25 02:06:12;;;;;;;40.92;21.20;;;5.40;99.90;;;;;;5033311;28;20115;-75
2021/12/25 02:08:39;;;;;;;36.55;19.85;;;5.40;99.90;;;;;;5013447;28;20460;-76
2021/12/25 02:11:10;;;;;;;35.45;19.23;;;5.30;99.90;;;;;;5037640;28;20033;-76
2021/12/25 02:13:37;;;;;;;34.80;18.92;;;5.40;99.90;;;;;;5035135;28;20028;-75
2021/12/25 02:16:07;;;;;;;37.75;20.60;;;5.30;99.90;;;;;;5030736;28;20074;-76
2021/12/25 02:19:31;;;;;;;31.10;17.67;;;5.30;99.90;;;;;;5040337;28;20022;-75
2021/12/25 02:21:22;;;;;;;35.40;19.05;;;5.30;99.90;;;;;;5024739;28;20041;-75
2021/12/25 02:23:49;;;;;;;32.85;18.38;;;5.20;99.90;;;;;;5043919;28;20036;-76
2021/12/25 02:26:17;;;;;;;37.35;19.77;;;5.20;99.90;;;;;;5046795;28;20036;-76
2021/12/25 02:28:43;;;;;;;36.42;18.95;;;5.20;99.90;;;;;;5041826;28;20025;-75
2021/12/25 02:31:11;;;;;;;34.58;17.67;;;5.20;99.90;;;;;;5032159;28;20037;-76
2021/12/25 02:33:38;;;;;;;32.78;18.55;;;5.20;99.90;;;;;;5034944;28;20022;-76
2021/12/25 02:36:05;;;;;;;31.52;18.10;;;5.10;99.90;;;;;;5031395;28;20017;-76
2021/12/25 02:38:32;;;;;;;33.05;18.75;;;5.10;99.90;;;;;;5034958;28;20386;-76
2021/12/25 02:40:58;;;;;;;31.58;18.08;;;5.00;99.90;;;;;;5032626;28;20462;-76
2021/12/25 02:43:24;;;;;;;32.42;18.35;;;5.00;99.90;;;;;;5033523;28;20030;-76
2021/12/25 02:45:51;;;;;;;31.98;19.33;;;4.90;99.90;;;;;;5030926;28;20018;-76
2021/12/25 02:48:20;;;;;;;32.10;19.75;;;4.90;99.90;;;;;;5030600;28;20032;-76
2021/12/25 02:50:45;;;;;;;34.20;20.35;;;4.90;99.90;;;;;;5042696;28;20045;-75
2021/12/25 02:53:12;;;;;;;28.80;18.45;;;4.90;99.90;;;;;;5046085;28;20603;-75
2021/12/25 02:55:40;;;;;;;30.10;18.88;;;4.80;99.90;;;;;;5047984;28;20017;-75
2021/12/25 02:58:06;;;;;;;29.75;18.63;;;4.80;99.90;;;;;;5028866;28;20037;-75
2021/12/25 03:00:35;;;;;;;30.65;18.40;;;4.70;99.90;;;;;;5038737;28;20064;-75
2021/12/25 03:03:03;;;;;;;27.70;17.20;;;4.70;99.90;;;;;;5034923;28;20028;-76
2021/12/25 03:05:29;;;;;;;27.85;17.55;;;4.70;99.90;;;;;;5040369;28;20489;-75
2021/12/25 03:07:55;;;;;;;28.13;17.25;;;4.60;99.90;;;;;;5038741;28;20478;-76
2021/12/25 03:10:20;;;;;;;28.50;18.15;;;4.60;99.90;;;;;;5036871;27;20033;-76
2021/12/25 03:12:52;;;;;;;25.98;16.33;;;4.60;99.90;;;;;;5043738;28;20036;-76
2021/12/25 03:15:27;;;;;;;26.90;15.55;;;4.60;99.90;;;;;;5040954;28;20021;-75
2021/12/25 03:17:55;;;;;;;24.38;15.32;;;4.60;99.90;;;;;;5049982;28;20098;-75
2021/12/25 03:20:21;;;;;;;22.75;13.95;;;4.50;99.90;;;;;;5043381;28;20037;-75
2021/12/25 03:22:46;;;;;;;23.33;14.25;;;4.50;99.90;;;;;;5042591;27;20034;-75
2021/12/25 03:25:15;;;;;;;23.25;13.77;;;4.60;99.90;;;;;;5030011;28;20029;-76
2021/12/25 03:27:42;;;;;;;22.25;13.55;;;4.60;99.90;;;;;;5038218;28;20017;-75
2021/12/25 03:30:09;;;;;;;23.40;14.05;;;4.50;99.90;;;;;;5041447;28;20052;-76
2021/12/25 03:32:35;;;;;;;23.45;14.25;;;4.50;99.90;;;;;;5029950;28;20052;-76
2021/12/25 03:35:01;;;;;;;23.90;14.27;;;4.50;99.90;;;;;;5039394;28;20029;-76
2021/12/25 03:37:27;;;;;;;23.50;13.70;;;4.50;99.90;;;;;;5036622;27;20033;-76
2021/12/25 03:39:53;;;;;;;24.05;14.38;;;4.50;99.90;;;;;;5034946;28;20102;-76
2021/12/25 03:42:19;;;;;;;26.35;14.95;;;4.50;99.90;;;;;;5039569;27;20035;-75
2021/12/25 03:44:46;;;;;;;24.90;14.90;;;4.50;99.90;;;;;;5042370;28;20401;-75
2021/12/25 03:47:26;;;;;;;26.80;14.88;;;4.50;99.90;;;;;;5042291;28;20021;-75
2021/12/25 03:58:07;;;;;;;26.45;15.45;;;4.50;99.90;;;;;;5081730;27;20283;-75
2021/12/25 04:00:34;;;;;;;26.85;16.08;;;4.50;99.90;;;;;;5043937;28;20228;-75
2021/12/25 04:03:05;;;;;;;28.77;15.75;;;4.50;99.90;;;;;;5110078;27;20560;-75
2021/12/25 04:05:33;;;;;;;27.10;16.13;;;4.40;99.90;;;;;;5032624;28;20025;-75
2021/12/25 04:10:27;;;;;;;29.48;17.25;;;4.40;99.90;;;;;;5032386;28;20041;-76
2021/12/25 04:12:53;;;;;;;31.50;17.50;;;4.30;99.90;;;;;;5044064;28;20090;-75
2021/12/25 04:15:19;;;;;;;28.77;16.58;;;4.30;99.90;;;;;;5048175;28;20029;-75
2021/12/25 04:17:45;;;;;;;32.63;17.50;;;4.30;99.90;;;;;;5032729;28;20025;-76
2021/12/25 04:20:10;;;;;;;34.05;18.48;;;4.30;99.90;;;;;;5035251;28;20021;-76
2021/12/25 04:22:51;;;;;;;31.05;18.65;;;4.30;99.90;;;;;;5034539;28;20021;-76
2021/12/25 04:25:22;;;;;;;33.35;18.40;;;4.30;99.90;;;;;;5046800;28;20040;-75
2021/12/25 04:27:48;;;;;;;33.38;19.00;;;4.30;99.90;;;;;;5040509;28;20021;-75
2021/12/25 05:05:34;;;;;;;37.75;20.02;;;3.90;99.90;;;;;;5028282;28;20047;-75
2021/12/25 05:08:01;;;;;;;36.70;20.13;;;3.90;99.90;;;;;;5032614;28;20021;-75
2021/12/25 05:10:26;;;;;;;42.00;21.70;;;3.90;99.90;;;;;;5036451;28;20483;-75
2021/12/25 05:12:52;;;;;;;41.47;22.42;;;3.90;99.90;;;;;;5033235;28;20021;-75
2021/12/25 05:15:17;;;;;;;43.38;21.90;;;3.90;99.90;;;;;;5043854;28;20025;-75
2021/12/25 05:17:43;;;;;;;40.63;21.13;;;3.90;99.90;;;;;;5046328;28;20076;-75
2021/12/25 05:20:09;;;;;;;43.25;21.73;;;3.80;99.90;;;;;;5028728;28;20119;-75
2021/12/25 05:22:35;;;;;;;45.13;22.15;;;3.90;99.90;;;;;;5028684;28;20059;-75
2021/12/25 05:25:01;;;;;;;39.97;21.13;;;3.80;99.90;;;;;;5045522;28;20033;-75
2021/12/25 05:27:26;;;;;;;44.08;22.00;;;3.80;99.90;;;;;;5028958;28;20490;-75
2021/12/25 05:29:52;;;;;;;45.45;22.63;;;3.70;99.90;;;;;;5031273;28;20520;-76
2021/12/25 05:32:19;;;;;;;40.67;21.20;;;3.70;99.90;;;;;;5033703;28;20021;-75
2021/12/25 05:34:45;;;;;;;47.70;21.88;;;3.80;99.90;;;;;;5039526;28;20043;-75
2021/12/25 05:37:10;;;;;;;42.92;22.17;;;3.80;99.90;;;;;;5047178;28;20037;-75
2021/12/25 05:39:36;;;;;;;40.55;21.42;;;3.80;99.90;;;;;;5047805;28;20074;-75
2021/12/25 05:42:02;;;;;;;39.17;20.63;;;3.70;99.90;;;;;;5038202;28;20112;-76
2021/12/25 05:44:28;;;;;;;41.03;21.40;;;3.60;99.90;;;;;;5032164;28;20086;-75
2021/12/25 05:46:54;;;;;;;41.60;21.40;;;3.60;99.90;;;;;;5032677;28;20017;-75
2021/12/25 05:49:20;;;;;;;38.85;20.75;;;3.60;99.90;;;;;;5039440;28;20033;-76
2021/12/25 05:51:46;;;;;;;37.55;19.98;;;3.60;99.90;;;;;;5043200;28;20116;-75
2021/12/25 05:54:12;;;;;;;39.33;21.13;;;3.60;99.90;;;;;;5036626;28;20112;-75
2021/12/25 05:56:37;;;;;;;42.78;21.25;;;3.60;99.90;;;;;;5036440;28;20454;-75
2021/12/25 05:59:03;;;;;;;44.38;20.10;;;3.60;99.90;;;;;;5033978;28;20393;-75
2021/12/25 06:01:29;;;;;;;39.53;20.40;;;3.50;99.90;;;;;;5043822;28;20447;-75
2021/12/25 06:03:56;;;;;;;40.28;19.58;;;3.50;99.90;;;;;;5042753;28;20495;-75
2021/12/25 06:06:21;;;;;;;36.78;18.45;;;3.50;99.90;;;;;;5046690;28;20018;-75
2021/12/25 06:08:47;;;;;;;41.00;19.55;;;3.50;99.90;;;;;;5047490;28;20420;-76
2021/12/25 06:11:12;;;;;;;40.03;20.23;;;3.50;99.90;;;;;;5033322;28;20032;-75
2021/12/25 06:13:44;;;;;;;38.97;19.40;;;3.40;99.90;;;;;;5045788;28;20033;-75
2021/12/25 06:16:10;;;;;;;41.17;18.98;;;3.40;99.90;;;;;;5045268;28;20104;-76
2021/12/25 06:18:35;;;;;;;35.13;17.98;;;3.40;99.90;;;;;;5031775;28;20455;-75
2021/12/25 06:21:01;;;;;;;32.03;17.38;;;3.30;99.90;;;;;;5043938;28;20655;-75
2021/12/25 06:23:29;;;;;;;32.13;16.27;;;3.30;99.90;;;;;;5041142;28;20029;-75
2021/12/25 06:25:55;;;;;;;30.25;16.52;;;3.20;99.90;;;;;;5032523;28;20078;-74
2021/12/25 06:28:20;;;;;;;31.05;16.35;;;3.20;99.90;;;;;;5031564;28;20038;-76
2021/12/25 06:30:47;;;;;;;32.92;15.88;;;3.20;99.90;;;;;;5040675;28;20041;-75
2021/12/25 06:33:13;;;;;;;29.75;15.40;;;3.20;99.90;;;;;;5038380;28;20017;-76
2021/12/25 06:35:38;;;;;;;30.27;14.57;;;3.10;99.90;;;;;;5037127;28;20052;-75
2021/12/25 06:38:04;;;;;;;29.83;14.65;;;3.10;99.90;;;;;;5038326;28;20036;-74
2021/12/25 06:40:30;;;;;;;26.65;13.90;;;3.10;99.90;;;;;;5041951;27;20468;-75
2021/12/25 06:42:56;;;;;;;27.55;13.68;;;3.00;99.90;;;;;;5043020;28;20033;-76
2021/12/25 06:45:21;;;;;;;25.67;12.00;;;3.00;99.90;;;;;;5039872;27;20078;-75
2021/12/25 06:47:47;;;;;;;23.67;11.98;;;2.90;99.90;;;;;;5039088;28;20030;-76
2021/12/25 06:50:13;;;;;;;20.85;10.07;;;3.00;99.90;;;;;;5039882;28;20068;-76
2021/12/25 06:52:38;;;;;;;19.85;10.23;;;2.90;99.90;;;;;;5035448;28;20487;-75
2021/12/25 06:55:06;;;;;;;21.38;10.43;;;3.00;99.90;;;;;;5040805;28;20021;-75
2021/12/25 06:57:32;;;;;;;19.73;10.57;;;2.90;99.90;;;;;;5035262;28;20082;-75
2021/12/25 06:59:57;;;;;;;17.80;9.98;;;2.90;99.90;;;;;;5036550;28;20033;-75
2021/12/25 07:02:23;;;;;;;18.20;9.85;;;2.80;99.90;;;;;;5042851;28;20021;-74
2021/12/25 07:04:49;;;;;;;18.83;9.73;;;2.80;99.90;;;;;;5045204;28;20072;-76
2021/12/25 07:07:17;;;;;;;17.35;8.73;;;2.80;99.90;;;;;;5048016;27;20110;-75
2021/12/25 07:09:43;;;;;;;14.75;7.30;;;2.70;99.90;;;;;;5035757;28;20024;-75
2021/12/25 07:12:10;;;;;;;12.15;5.50;;;2.70;99.90;;;;;;5040278;27;20105;-76
2021/12/25 07:14:36;;;;;;;9.63;5.25;;;2.60;99.90;;;;;;5031055;28;20041;-75
2021/12/25 07:17:01;;;;;;;9.52;4.93;;;2.50;99.90;;;;;;5035478;28;21243;-75
2021/12/25 07:19:27;;;;;;;7.93;4.15;;;2.50;99.90;;;;;;5042287;28;20035;-76
2021/12/25 07:21:52;;;;;;;7.57;4.07;;;2.50;99.90;;;;;;5048566;28;20021;-76
2021/12/25 07:24:18;;;;;;;6.55;4.25;;;2.40;99.90;;;;;;5046686;28;20482;-75
2021/12/25 07:26:44;;;;;;;7.78;3.75;;;2.40;99.90;;;;;;5045531;28;20021;-75
2021/12/25 07:29:10;;;;;;;7.38;4.45;;;2.30;99.90;;;;;;5046177;28;20068;-75
2021/12/25 07:31:36;;;;;;;8.75;4.10;;;2.30;99.90;;;;;;5033929;28;20033;-75
2021/12/25 07:34:02;;;;;;;9.18;3.40;;;2.20;99.90;;;;;;5043965;27;20033;-75
2021/12/25 07:36:28;;;;;;;6.35;3.33;;;2.10;99.90;;;;;;5039366;28;20029;-75
2021/12/25 07:38:55;;;;;;;6.65;3.40;;;2.00;99.90;;;;;;5039542;28;20093;-75
2021/12/25 07:41:21;;;;;;;8.07;3.97;;;2.00;99.90;;;;;;5030674;28;20154;-75
2021/12/25 07:43:46;;;;;;;5.65;3.40;;;2.00;99.90;;;;;;5032624;28;20104;-75
2021/12/25 07:46:12;;;;;;;7.82;3.50;;;2.00;99.90;;;;;;5035480;28;20021;-75
2021/12/25 07:48:38;;;;;;;6.43;3.40;;;1.90;99.90;;;;;;5043996;28;20602;-76
2021/12/25 07:51:03;;;;;;;5.55;3.20;;;1.80;99.90;;;;;;5040299;28;20021;-76
2021/12/25 07:53:32;;;;;;;6.95;3.90;;;1.80;99.90;;;;;;5043673;28;20035;-76
2021/12/25 07:55:58;;;;;;;5.55;2.92;;;1.80;99.90;;;;;;5034650;28;20134;-75
2021/12/25 07:58:24;;;;;;;8.45;3.13;;;1.70;99.90;;;;;;5050178;28;20044;-75
2021/12/25 08:00:50;;;;;;;10.20;3.38;;;1.60;99.90;;;;;;5042510;28;20507;-74
2021/12/25 08:03:16;;;;;;;6.07;2.55;;;1.60;99.90;;;;;;5031237;28;20061;-75
2021/12/25 08:05:43;;;;;;;4.90;2.80;;;1.50;99.90;;;;;;5034822;28;20053;-76
2021/12/25 08:08:11;;;;;;;8.40;3.65;;;1.50;99.90;;;;;;5039389;28;20062;-76
2021/12/25 08:10:37;;;;;;;7.97;3.85;;;1.50;99.90;;;;;;5032956;28;20032;-76
2021/12/25 08:13:03;;;;;;;5.63;2.80;;;1.50;99.90;;;;;;5035191;28;20022;-75
2021/12/25 08:15:30;;;;;;;6.15;2.95;;;1.50;99.90;;;;;;5029411;28;20024;-77
2021/12/25 08:18:00;;;;;;;6.05;2.90;;;1.50;99.90;;;;;;5033817;28;20354;-76
2021/12/25 08:20:26;;;;;;;6.00;2.88;;;1.40;99.90;;;;;;5034818;28;20033;-76
2021/12/25 08:22:52;;;;;;;8.02;2.90;;;1.40;99.90;;;;;;5043554;28;20029;-76
2021/12/25 08:25:18;;;;;;;6.82;3.13;;;1.40;99.90;;;;;;5030375;28;20841;-76
2021/12/25 08:27:46;;;;;;;11.90;3.53;;;1.30;99.90;;;;;;5037919;28;20025;-77
2021/12/25 08:30:15;;;;;;;5.80;2.95;;;1.30;99.90;;;;;;5033053;28;20056;-76
2021/12/25 08:32:42;;;;;;;5.75;2.78;;;1.30;99.90;;;;;;5040393;28;20037;-76
2021/12/25 08:35:10;;;;;;;9.00;2.97;;;1.30;99.90;;;;;;5039690;28;20048;-77
2021/12/25 08:37:36;;;;;;;5.38;3.20;;;1.30;99.90;;;;;;5035281;28;20037;-76
2021/12/25 08:40:04;;;;;;;6.38;2.50;;;1.30;99.90;;;;;;5033626;28;20021;-76
2021/12/25 08:42:30;;;;;;;4.80;2.55;;;1.20;99.90;;;;;;5038678;28;20033;-76
2021/12/25 08:47:26;;;;;;;4.50;2.83;;;1.20;99.90;;;;;;5038664;28;20050;-76
2021/12/25 08:49:51;;;;;;;4.65;2.63;;;1.10;99.90;;;;;;5038721;28;20029;-76
2021/12/25 08:52:19;;;;;;;6.82;2.45;;;1.10;99.90;;;;;;5039007;27;20055;-76
2021/12/25 08:54:49;;;;;;;5.47;2.60;;;1.10;99.90;;;;;;5058167;28;20120;-77
2021/12/25 08:57:16;;;;;;;4.20;2.78;;;1.20;99.90;;;;;;5035405;28;20030;-76
2021/12/25 08:59:43;;;;;;;5.65;2.33;;;1.10;99.90;;;;;;5041350;28;20025;-77
2021/12/25 09:02:12;;;;;;;4.97;2.53;;;1.10;99.90;;;;;;5050519;28;20025;-76
2021/12/25 09:04:39;;;;;;;4.72;2.65;;;1.10;99.90;;;;;;5051349;28;20029;-76
2021/12/25 09:07:05;;;;;;;5.22;2.58;;;1.00;99.90;;;;;;5048818;28;20401;-77
2021/12/25 09:09:31;;;;;;;3.65;2.42;;;1.00;99.90;;;;;;5033026;28;20057;-76
2021/12/25 09:11:57;;;;;;;4.95;2.65;;;1.00;99.90;;;;;;5029113;28;20030;-77
2021/12/25 09:14:24;;;;;;;3.55;2.42;;;1.00;99.90;;;;;;5039226;28;20663;-77
2021/12/25 09:16:50;;;;;;;4.78;2.75;;;1.00;99.90;;;;;;5039499;28;20018;-76
2021/12/25 09:19:16;;;;;;;11.15;3.15;;;0.90;99.90;;;;;;5035671;28;20785;-76
2021/12/25 09:21:42;;;;;;;8.93;2.67;;;0.90;99.90;;;;;;5051130;27;20040;-76
2021/12/25 09:24:07;;;;;;;6.95;2.55;;;0.90;99.90;;;;;;5051419;27;20044;-76
2021/12/25 09:26:34;;;;;;;6.05;2.42;;;0.90;99.90;;;;;;5044843;28;20138;-75
2021/12/25 09:29:00;;;;;;;4.85;2.45;;;0.90;99.90;;;;;;5044183;28;20490;-75
2021/12/25 09:31:26;;;;;;;4.20;2.30;;;0.90;99.90;;;;;;5050560;28;20028;-76
2021/12/25 09:33:53;;;;;;;4.43;2.30;;;0.90;99.90;;;;;;5038398;28;20068;-75
2021/12/25 09:36:20;;;;;;;4.53;2.55;;;0.90;99.90;;;;;;5049143;28;20029;-74
2021/12/25 09:38:46;;;;;;;4.00;2.55;;;0.90;99.90;;;;;;5038559;28;20033;-75
2021/12/25 09:41:12;;;;;;;6.00;2.70;;;0.90;99.90;;;;;;5030931;28;20026;-75
2021/12/25 09:43:39;;;;;;;7.22;2.83;;;0.90;99.90;;;;;;5031316;28;20064;-75
2021/12/25 09:46:05;;;;;;;12.18;2.90;;;0.90;99.90;;;;;;5030718;28;20025;-76
2021/12/25 09:48:31;;;;;;;7.93;2.75;;;0.90;99.90;;;;;;5039321;27;20025;-76
2021/12/25 09:50:57;;;;;;;4.55;2.38;;;1.00;99.90;;;;;;5041339;28;20028;-75
2021/12/25 09:53:23;;;;;;;5.75;2.75;;;1.00;99.90;;;;;;5041422;27;20030;-76
2021/12/25 09:55:51;;;;;;;4.70;2.53;;;0.90;99.90;;;;;;5042121;28;20028;-74
2021/12/25 09:58:17;;;;;;;6.15;2.80;;;0.90;99.90;;;;;;5045159;28;20029;-77
2021/12/25 10:00:46;;;;;;;3.35;2.58;;;1.00;99.90;;;;;;5037294;28;20405;-75
2021/12/25 10:03:13;;;;;;;8.23;2.60;;;0.90;99.90;;;;;;5042882;28;20056;-75
2021/12/25 10:05:43;;;;;;;8.13;3.00;;;0.90;99.90;;;;;;5041160;28;20041;-74
2021/12/25 10:08:20;;;;;;;5.07;2.70;;;0.90;99.90;;;;;;5032271;28;20487;-75
2021/12/25 10:10:49;;;;;;;5.75;3.08;;;0.90;99.90;;;;;;5030938;28;20030;-75
2021/12/25 10:13:27;;;;;;;5.90;2.60;;;0.90;99.90;;;;;;5039846;28;20028;-76
2021/12/25 10:15:55;;;;;;;5.28;3.00;;;0.90;99.90;;;;;;5032351;28;20025;-75
2021/12/25 10:18:34;;;;;;;4.72;3.30;;;0.80;99.90;;;;;;5043551;28;20108;-75
2021/12/25 10:21:35;;;;;;;5.97;3.20;;;0.90;99.90;;;;;;5037745;28;20593;-75
2021/12/25 10:24:06;;;;;;;7.93;3.10;;;0.90;99.90;;;;;;5060354;28;20082;-75
2021/12/25 10:26:34;;;;;;;6.55;3.20;;;0.90;99.90;;;;;;5061231;28;20033;-76
2021/12/25 10:29:13;;;;;;;4.78;3.20;;;0.90;99.90;;;;;;5058911;28;20045;-76
2021/12/25 10:31:39;;;;;;;6.38;3.28;;;0.90;99.90;;;;;;5055332;28;20599;-75
2021/12/25 10:34:19;;;;;;;7.65;3.67;;;0.90;99.90;;;;;;5054535;28;20020;-74
2021/12/25 10:36:45;;;;;;;3.95;3.05;;;0.90;99.90;;;;;;5062787;28;20048;-75
2021/12/25 10:39:23;;;;;;;6.30;3.38;;;0.90;99.90;;;;;;5060873;28;20032;-75
2021/12/25 10:42:20;;;;;;;6.43;2.75;;;1.00;99.90;;;;;;5066535;28;20078;-76
2021/12/25 10:44:52;;;;;;;5.68;3.15;;;1.00;99.90;;;;;;5049974;28;20439;-75
2021/12/25 10:47:20;;;;;;;6.20;3.15;;;1.00;99.90;;;;;;5064479;28;20527;-75
2021/12/25 10:49:54;;;;;;;5.35;3.42;;;1.10;99.90;;;;;;5062008;28;20401;-75
2021/12/25 10:52:26;;;;;;;5.50;3.28;;;1.20;99.90;;;;;;5065551;28;20040;-74
2021/12/25 10:54:58;;;;;;;6.47;3.10;;;1.30;99.90;;;;;;5063562;28;20025;-75
2021/12/25 10:57:31;;;;;;;5.00;3.35;;;1.40;99.90;;;;;;5057828;28;20057;-74
2021/12/25 10:59:58;;;;;;;4.68;3.05;;;1.50;99.90;;;;;;5040652;28;20477;-74
2021/12/25 11:02:36;;;;;;;6.13;3.10;;;1.60;99.90;;;;;;5047895;28;20025;-73
2021/12/25 11:05:15;;;;;;;4.03;2.75;;;1.60;99.90;;;;;;5045866;28;20033;-73
2021/12/25 11:07:41;;;;;;;3.13;2.33;;;1.70;99.90;;;;;;5038716;28;20029;-74
2021/12/25 11:10:11;;;;;;;2.85;2.10;;;1.70;99.90;;;;;;5038638;28;20029;-74
2021/12/25 11:12:37;;;;;;;2.63;2.30;;;1.70;99.90;;;;;;5042839;28;20025;-74
2021/12/25 11:15:14;;;;;;;3.35;2.20;;;1.80;99.90;;;;;;5052338;28;20105;-74
2021/12/25 11:17:42;;;;;;;1.60;1.50;;;1.70;99.90;;;;;;5046118;28;20049;-75
2021/12/25 11:20:18;;;;;;;3.97;2.15;;;1.70;99.90;;;;;;5040074;28;20029;-74
2021/12/25 11:22:52;;;;;;;1.92;1.70;;;1.70;99.90;;;;;;5043098;28;20025;-75
2021/12/25 11:25:21;;;;;;;3.17;1.90;;;1.60;99.90;;;;;;5044412;28;20112;-75
2021/12/25 11:27:48;;;;;;;5.53;2.45;;;1.60;99.90;;;;;;5042053;28;20408;-75
2021/12/25 11:30:14;;;;;;;2.75;1.80;;;1.60;99.90;;;;;;5040539;28;20041;-74
2021/12/25 11:32:40;;;;;;;2.63;1.60;;;1.60;99.90;;;;;;5032180;28;20363;-75
2021/12/25 11:35:06;;;;;;;2.75;1.60;;;1.60;99.90;;;;;;5034418;28;20040;-75
2021/12/25 11:37:32;;;;;;;3.08;1.70;;;1.50;99.90;;;;;;5034101;28;20025;-74
2021/12/25 11:39:58;;;;;;;2.50;1.60;;;1.50;99.90;;;;;;5039699;27;20028;-75
2021/12/25 11:42:25;;;;;;;3.58;1.70;;;1.50;99.90;;;;;;5052452;27;20107;-75
2021/12/25 11:44:53;;;;;;;3.47;1.50;;;1.50;99.90;;;;;;5056826;28;20021;-74
2021/12/25 11:47:42;;;;;;;2.67;1.60;;;1.50;99.90;;;;;;5054970;28;20021;-75
2021/12/25 11:50:18;;;;;;;2.65;1.67;;;1.50;99.90;;;;;;5043259;28;20102;-75
2021/12/25 11:53:00;;;;;;;3.40;1.90;;;1.50;99.90;;;;;;5043951;28;20048;-77
2021/12/25 11:58:20;;;;;;;2.47;1.52;;;1.60;99.90;;;;;;5054829;28;20089;-75
2021/12/25 12:00:49;;;;;;;3.20;1.67;;;1.60;99.90;;;;;;5050334;28;20109;-74
2021/12/25 12:03:44;;;;;;;1.90;1.25;;;1.70;99.90;;;;;;5039728;28;20040;-74
2021/12/25 12:06:13;;;;;;;2.00;1.20;;;1.80;99.90;;;;;;5040504;28;20033;-74
2021/12/25 12:08:53;;;;;;;2.97;1.40;;;1.80;99.90;;;;;;5053834;28;20021;-75
2021/12/25 12:11:24;;;;;;;1.52;1.30;;;1.90;99.90;;;;;;5043836;28;20402;-75
2021/12/25 12:14:15;;;;;;;2.13;1.33;;;1.90;99.90;;;;;;5042444;28;20784;-74
2021/12/25 12:16:44;;;;;;;4.00;1.40;;;2.00;99.90;;;;;;5051991;28;20021;-73
2021/12/25 12:27:49;;;;;;;1.42;1.23;;;2.20;99.90;;;;;;5042516;28;20036;-75
2021/12/25 12:30:49;;;;;;;1.75;1.40;;;2.30;99.90;;;;;;5049261;28;20037;-74
2021/12/25 12:33:14;;;;;;;2.13;1.30;;;2.40;99.90;;;;;;5050007;28;20072;-75
2021/12/25 12:35:51;;;;;;;1.50;1.15;;;2.40;99.90;;;;;;5051283;27;20034;-74
2021/12/25 12:38:42;;;;;;;2.58;1.05;;;2.40;99.90;;;;;;5046039;28;20118;-75
2021/12/25 12:41:17;;;;;;;2.47;1.10;;;2.50;99.90;;;;;;5132106;27;20077;-76
2021/12/25 12:44:03;;;;;;;1.65;1.13;;;2.50;99.90;;;;;;5044852;28;20044;-76
2021/12/25 12:46:48;;;;;;;1.85;1.30;;;2.50;99.90;;;;;;5063397;27;20056;-76
2021/12/25 12:49:16;;;;;;;2.42;1.55;;;2.60;99.90;;;;;;5044656;27;20025;-75
2021/12/25 12:51:42;;;;;;;2.65;1.50;;;2.60;99.90;;;;;;5065979;27;20104;-76
2021/12/25 12:54:09;;;;;;;2.63;1.33;;;2.70;99.90;;;;;;5078069;27;20027;-77
2021/12/25 12:56:36;;;;;;;1.70;1.17;;;2.70;99.90;;;;;;5065592;27;20710;-75
2021/12/25 12:59:03;;;;;;;1.85;1.40;;;2.70;99.90;;;;;;5049681;27;20053;-74
2021/12/25 13:01:29;;;;;;;1.90;1.27;;;2.60;99.90;;;;;;5052559;27;20037;-75
2021/12/25 13:03:59;;;;;;;2.13;1.48;;;2.70;99.90;;;;;;5061574;27;20485;-78
2021/12/25 13:06:27;;;;;;;2.13;1.48;;;2.70;99.90;;;;;;5058342;27;20024;-75
2021/12/25 13:08:53;;;;;;;3.28;1.58;;;2.70;99.90;;;;;;5053983;27;20053;-75
2021/12/25 13:11:26;;;;;;;1.67;1.10;;;2.70;99.90;;;;;;5048852;28;20052;-76
2021/12/25 13:13:59;;;;;;;2.85;1.70;;;2.70;99.90;;;;;;5050116;28;20046;-77
2021/12/25 13:16:33;;;;;;;2.53;1.35;;;2.70;99.90;;;;;;5080679;27;20499;-75
2021/12/25 13:19:03;;;;;;;3.63;1.30;;;2.80;99.90;;;;;;5133784;27;20375;-75
2021/12/25 13:21:30;;;;;;;2.00;1.27;;;2.80;99.90;;;;;;5132596;27;20035;-78
2021/12/25 13:24:11;;;;;;;2.97;1.30;;;2.80;99.90;;;;;;5032839;28;20033;-75
2021/12/25 13:26:42;;;;;;;3.50;1.40;;;2.80;99.90;;;;;;5042795;28;20483;-76
2021/12/25 13:29:11;;;;;;;1.77;1.30;;;2.80;99.90;;;;;;5035369;27;20045;-75
2021/12/25 13:31:41;;;;;;;1.85;1.30;;;2.80;99.90;;;;;;5046537;28;20029;-75
2021/12/25 13:34:15;;;;;;;2.17;1.17;;;2.80;99.90;;;;;;5068787;27;20392;-75
2021/12/25 13:36:50;;;;;;;2.97;1.48;;;2.80;99.90;;;;;;5092410;27;20036;-75
2021/12/25 13:39:26;;;;;;;4.35;1.60;;;2.80;99.90;;;;;;5035623;28;20021;-75
2021/12/25 13:42:13;;;;;;;1.75;1.50;;;2.80;99.90;;;;;;5033950;28;20110;-74
2021/12/25 13:44:45;;;;;;;5.38;1.52;;;2.90;99.90;;;;;;5032752;28;20521;-75
2021/12/25 13:47:21;;;;;;;2.85;1.60;;;2.80;99.90;;;;;;5037794;28;20037;-76
2021/12/25 13:50:00;;;;;;;3.72;1.60;;;2.80;99.90;;;;;;5054799;28;20017;-75
2021/12/25 13:52:35;;;;;;;2.33;1.58;;;2.70;99.90;;;;;;5036095;28;20053;-75
2021/12/25 13:55:01;;;;;;;;;;;2.70;99.90;;;;;;5035231;28;20065;-74
2021/12/25 13:57:30;;;;;;;3.90;1.40;;;2.60;99.90;;;;;;5034249;28;19961;-75
2021/12/25 14:00:02;;;;;;;4.50;1.90;;;2.60;99.90;;;;;;5060082;27;20023;-76
2021/12/25 14:02:29;;;;;;;3.83;1.40;;;2.60;99.90;;;;;;5043739;28;20057;-75
2021/12/25 14:04:56;;;;;;;1.77;1.13;;;2.60;99.90;;;;;;5062855;27;20046;-76
2021/12/25 14:07:28;;;;;;;2.83;1.50;;;2.60;99.90;;;;;;5068711;27;20025;-75
2021/12/25 14:09:59;;;;;;;2.53;1.20;;;2.50;99.90;;;;;;5033387;28;20033;-75
2021/12/25 14:12:26;;;;;;;4.22;1.38;;;2.40;99.90;;;;;;5039605;28;20048;-75
2021/12/25 14:14:53;;;;;;;1.83;1.17;;;2.30;99.90;;;;;;5041444;28;20101;-75
2021/12/25 14:17:19;;;;;;;1.27;1.10;;;2.30;99.90;;;;;;5037575;28;20150;-74
2021/12/25 14:19:45;;;;;;;2.33;1.38;;;2.30;99.90;;;;;;5037514;28;20045;-76
2021/12/25 14:22:11;;;;;;;1.60;1.30;;;2.30;99.90;;;;;;5040423;28;20086;-76
2021/12/25 14:24:48;;;;;;;2.13;1.15;;;2.20;99.90;;;;;;5043532;28;20453;-77